sensor_id;sensor_type;location;lat;lon;timestamp;temperature;humidity
42833;DHT22;28479;51.478;5.692;2022-08-21T00:00:30;15.10;99.90
42833;DHT22;28479;51.478;5.692;2022-08-21T00:03:02;15.10;99.90
42833;DHT22;28479;51.478;5.692;2022-08-21T00:05:28;15.00;99.90
42833;DHT22;28479;51.478;5.692;2022-08-21T00:07:55;15.00;99.90
42833;DHT22;28479;51.478;5.692;2022-08-21T00:10:21;15.00;99.90
42833;DHT22;28479;51.478;5.692;2022-08-21T00:12:47;14.90;99.90
42833;DHT22;28479;51.478;5.692;2022-08-21T00:15:17;14.90;99.90
42833;DHT22;28479;51.478;5.692;2022-08-21T00:17:43;14.90;99.90
42833;DHT22;28479;51.478;5.692;2022-08-21T00:20:11;14.80;99.90
42833;DHT22;28479;51.478;5.692;2022-08-21T00:22:38;14.80;99.90
42833;DHT22;28479;51.478;5.692;2022-08-21T00:25:05;14.80;99.90
42833;DHT22;28479;51.478;5.692;2022-08-21T00:27:31;14.80;99.90
42833;DHT22;28479;51.478;5.692;2022-08-21T00:29:57;14.80;99.90
42833;DHT22;28479;51.478;5.692;2022-08-21T00:32:24;14.90;99.90
42833;DHT22;28479;51.478;5.692;2022-08-21T00:34:50;14.80;99.90
42833;DHT22;28479;51.478;5.692;2022-08-21T00:37:16;14.80;99.90
42833;DHT22;28479;51.478;5.692;2022-08-21T00:39:42;14.80;99.90
42833;DHT22;28479;51.478;5.692;2022-08-21T00:42:08;14.80;99.90
42833;DHT22;28479;51.478;5.692;2022-08-21T00:44:34;14.70;99.90
42833;DHT22;28479;51.478;5.692;2022-08-21T00:47:00;14.60;99.90
42833;DHT22;28479;51.478;5.692;2022-08-21T00:49:26;14.60;99.90
42833;DHT22;28479;51.478;5.692;2022-08-21T00:51:55;14.70;99.90
42833;DHT22;28479;51.478;5.692;2022-08-21T00:54:25;14.60;99.90
42833;DHT22;28479;51.478;5.692;2022-08-21T00:56:58;14.60;99.90
42833;DHT22;28479;51.478;5.692;2022-08-21T00:59:25;14.60;99.90
42833;DHT22;28479;51.478;5.692;2022-08-21T01:01:53;14.60;99.90
42833;DHT22;28479;51.478;5.692;2022-08-21T01:04:19;14.50;99.90
42833;DHT22;28479;51.478;5.692;2022-08-21T01:06:45;14.50;99.90
42833;DHT22;28479;51.478;5.692;2022-08-21T01:09:12;14.40;99.90
42833;DHT22;28479;51.478;5.692;2022-08-21T01:11:39;14.40;99.90
42833;DHT22;28479;51.478;5.692;2022-08-21T01:14:05;14.40;99.90
42833;DHT22;28479;51.478;5.692;2022-08-21T01:16:31;14.40;99.90
42833;DHT22;28479;51.478;5.692;2022-08-21T01:18:58;14.50;99.90
42833;DHT22;28479;51.478;5.692;2022-08-21T01:21:25;14.40;99.90
42833;DHT22;28479;51.478;5.692;2022-08-21T01:23:53;14.40;99.90
42833;DHT22;28479;51.478;5.692;2022-08-21T01:26:26;14.30;99.90
42833;DHT22;28479;51.478;5.692;2022-08-21T01:29:00;14.30;99.90
42833;DHT22;28479;51.478;5.692;2022-08-21T01:31:28;14.40;99.90
42833;DHT22;28479;51.478;5.692;2022-08-21T01:33:55;14.40;99.90
42833;DHT22;28479;51.478;5.692;2022-08-21T01:36:22;14.40;99.90
42833;DHT22;28479;51.478;5.692;2022-08-21T01:38:48;14.30;99.90
42833;DHT22;28479;51.478;5.692;2022-08-21T01:41:15;14.30;99.90
42833;DHT22;28479;51.478;5.692;2022-08-21T01:43:41;14.30;99.90
42833;DHT22;28479;51.478;5.692;2022-08-21T01:46:07;14.30;99.90
42833;DHT22;28479;51.478;5.692;2022-08-21T01:48:33;14.20;99.90
42833;DHT22;28479;51.478;5.692;2022-08-21T01:50:58;14.20;99.90
42833;DHT22;28479;51.478;5.692;2022-08-21T01:53:24;14.10;99.90
42833;DHT22;28479;51.478;5.692;2022-08-21T01:55:50;14.20;99.90
42833;DHT22;28479;51.478;5.692;2022-08-21T01:58:15;14.10;99.90
42833;DHT22;28479;51.478;5.692;2022-08-21T02:00:41;14.20;99.90
42833;DHT22;28479;51.478;5.692;2022-08-21T02:03:07;14.10;99.90
42833;DHT22;28479;51.478;5.692;2022-08-21T02:05:32;14.10;99.90
42833;DHT22;28479;51.478;5.692;2022-08-21T02:07:58;14.10;99.90
42833;DHT22;28479;51.478;5.692;2022-08-21T02:10:29;14.00;99.90
42833;DHT22;28479;51.478;5.692;2022-08-21T02:12:55;14.00;99.90
42833;DHT22;28479;51.478;5.692;2022-08-21T02:15:22;14.10;99.90
42833;DHT22;28479;51.478;5.692;2022-08-21T02:17:53;14.10;99.90
42833;DHT22;28479;51.478;5.692;2022-08-21T02:20:24;14.10;99.90
42833;DHT22;28479;51.478;5.692;2022-08-21T02:22:51;14.20;99.90
42833;DHT22;28479;51.478;5.692;2022-08-21T02:25:17;14.20;99.90
42833;DHT22;28479;51.478;5.692;2022-08-21T02:27:44;14.20;99.90
42833;DHT22;28479;51.478;5.692;2022-08-21T02:30:14;14.10;99.90
42833;DHT22;28479;51.478;5.692;2022-08-21T02:32:41;14.00;99.90
42833;DHT22;28479;51.478;5.692;2022-08-21T02:35:08;14.00;99.90
42833;DHT22;28479;51.478;5.692;2022-08-21T02:37:53;13.90;99.90
42833;DHT22;28479;51.478;5.692;2022-08-21T02:40:21;13.90;99.90
42833;DHT22;28479;51.478;5.692;2022-08-21T02:42:47;13.80;99.90
42833;DHT22;28479;51.478;5.692;2022-08-21T02:45:14;13.80;99.90
42833;DHT22;28479;51.478;5.692;2022-08-21T02:47:46;13.70;99.90
42833;DHT22;28479;51.478;5.692;2022-08-21T02:50:12;13.70;99.90
42833;DHT22;28479;51.478;5.692;2022-08-21T02:52:38;13.70;99.90
42833;DHT22;28479;51.478;5.692;2022-08-21T02:55:04;13.70;99.90
42833;DHT22;28479;51.478;5.692;2022-08-21T02:57:30;13.60;99.90
42833;DHT22;28479;51.478;5.692;2022-08-21T02:59:57;13.70;99.90
42833;DHT22;28479;51.478;5.692;2022-08-21T03:02:23;13.60;99.90
42833;DHT22;28479;51.478;5.692;2022-08-21T03:04:49;13.70;99.90
42833;DHT22;28479;51.478;5.692;2022-08-21T03:07:14;13.60;99.90
42833;DHT22;28479;51.478;5.692;2022-08-21T03:09:40;13.60;99.90
42833;DHT22;28479;51.478;5.692;2022-08-21T03:12:06;13.60;99.90
42833;DHT22;28479;51.478;5.692;2022-08-21T03:14:31;13.60;99.90
42833;DHT22;28479;51.478;5.692;2022-08-21T03:16:57;13.60;99.90
42833;DHT22;28479;51.478;5.692;2022-08-21T03:19:23;13.70;99.90
42833;DHT22;28479;51.478;5.692;2022-08-21T03:21:48;13.80;99.90
42833;DHT22;28479;51.478;5.692;2022-08-21T03:24:17;13.80;99.90
42833;DHT22;28479;51.478;5.692;2022-08-21T03:26:42;13.90;99.90
42833;DHT22;28479;51.478;5.692;2022-08-21T03:29:08;14.00;99.90
42833;DHT22;28479;51.478;5.692;2022-08-21T03:31:33;14.10;99.90
42833;DHT22;28479;51.478;5.692;2022-08-21T03:34:02;14.10;99.90
42833;DHT22;28479;51.478;5.692;2022-08-21T03:36:28;14.10;99.90
42833;DHT22;28479;51.478;5.692;2022-08-21T03:38:53;14.10;99.90
42833;DHT22;28479;51.478;5.692;2022-08-21T03:41:19;14.00;99.90
42833;DHT22;28479;51.478;5.692;2022-08-21T03:43:44;14.00;99.90
42833;DHT22;28479;51.478;5.692;2022-08-21T03:46:10;14.00;99.90
42833;DHT22;28479;51.478;5.692;2022-08-21T03:48:37;13.90;99.90
42833;DHT22;28479;51.478;5.692;2022-08-21T03:51:03;13.90;99.90
42833;DHT22;28479;51.478;5.692;2022-08-21T03:53:29;13.90;99.90
42833;DHT22;28479;51.478;5.692;2022-08-21T03:55:56;13.90;99.90
42833;DHT22;28479;51.478;5.692;2022-08-21T03:58:24;13.90;99.90
42833;DHT22;28479;51.478;5.692;2022-08-21T04:00:52;13.90;99.90
42833;DHT22;28479;51.478;5.692;2022-08-21T04:03:19;13.80;99.90
42833;DHT22;28479;51.478;5.692;2022-08-21T04:05:45;13.80;99.90
42833;DHT22;28479;51.478;5.692;2022-08-21T04:08:11;13.80;99.90
42833;DHT22;28479;51.478;5.692;2022-08-21T04:10:39;13.80;99.90
42833;DHT22;28479;51.478;5.692;2022-08-21T04:13:06;13.70;99.90
42833;DHT22;28479;51.478;5.692;2022-08-21T04:15:32;13.70;99.90
42833;DHT22;28479;51.478;5.692;2022-08-21T04:17:58;13.70;99.90
42833;DHT22;28479;51.478;5.692;2022-08-21T04:20:24;13.70;99.90
42833;DHT22;28479;51.478;5.692;2022-08-21T04:22:50;13.70;99.90
42833;DHT22;28479;51.478;5.692;2022-08-21T04:25:18;13.70;99.90
42833;DHT22;28479;51.478;5.692;2022-08-21T04:27:44;13.60;99.90
42833;DHT22;28479;51.478;5.692;2022-08-21T04:30:11;13.60;99.90
42833;DHT22;28479;51.478;5.692;2022-08-21T04:32:38;13.60;99.90
42833;DHT22;28479;51.478;5.692;2022-08-21T04:35:09;13.50;99.90
42833;DHT22;28479;51.478;5.692;2022-08-21T04:37:35;13.50;99.90
42833;DHT22;28479;51.478;5.692;2022-08-21T04:40:01;13.50;99.90
42833;DHT22;28479;51.478;5.692;2022-08-21T04:42:28;13.60;99.90
42833;DHT22;28479;51.478;5.692;2022-08-21T04:44:54;13.60;99.90
42833;DHT22;28479;51.478;5.692;2022-08-21T04:47:21;13.60;99.90
42833;DHT22;28479;51.478;5.692;2022-08-21T04:49:47;13.50;99.90
42833;DHT22;28479;51.478;5.692;2022-08-21T04:52:16;13.60;99.90
42833;DHT22;28479;51.478;5.692;2022-08-21T04:54:44;13.70;99.90
42833;DHT22;28479;51.478;5.692;2022-08-21T04:57:11;13.70;99.90
42833;DHT22;28479;51.478;5.692;2022-08-21T04:59:47;13.70;99.90
42833;DHT22;28479;51.478;5.692;2022-08-21T05:02:13;13.70;99.90
42833;DHT22;28479;51.478;5.692;2022-08-21T05:04:46;13.70;99.90
42833;DHT22;28479;51.478;5.692;2022-08-21T05:07:16;13.70;99.90
42833;DHT22;28479;51.478;5.692;2022-08-21T05:09:43;13.70;99.90
42833;DHT22;28479;51.478;5.692;2022-08-21T05:12:09;13.70;99.90
42833;DHT22;28479;51.478;5.692;2022-08-21T05:14:35;13.80;99.90
42833;DHT22;28479;51.478;5.692;2022-08-21T05:17:01;13.70;99.90
42833;DHT22;28479;51.478;5.692;2022-08-21T05:19:27;13.70;99.90
42833;DHT22;28479;51.478;5.692;2022-08-21T05:21:53;13.80;99.90
42833;DHT22;28479;51.478;5.692;2022-08-21T05:24:18;13.80;99.90
42833;DHT22;28479;51.478;5.692;2022-08-21T05:26:45;13.80;99.90
42833;DHT22;28479;51.478;5.692;2022-08-21T05:29:11;13.90;99.90
42833;DHT22;28479;51.478;5.692;2022-08-21T05:31:37;13.90;99.90
42833;DHT22;28479;51.478;5.692;2022-08-21T05:34:04;14.00;99.90
42833;DHT22;28479;51.478;5.692;2022-08-21T05:36:30;14.00;99.90
42833;DHT22;28479;51.478;5.692;2022-08-21T05:38:56;14.00;99.90
42833;DHT22;28479;51.478;5.692;2022-08-21T05:41:21;14.10;99.90
42833;DHT22;28479;51.478;5.692;2022-08-21T05:43:48;14.10;99.90
42833;DHT22;28479;51.478;5.692;2022-08-21T05:46:16;14.20;99.90
42833;DHT22;28479;51.478;5.692;2022-08-21T05:48:42;14.20;99.90
42833;DHT22;28479;51.478;5.692;2022-08-21T05:51:11;14.30;99.90
42833;DHT22;28479;51.478;5.692;2022-08-21T05:53:38;14.40;99.90
42833;DHT22;28479;51.478;5.692;2022-08-21T05:56:04;14.30;99.90
42833;DHT22;28479;51.478;5.692;2022-08-21T05:58:32;14.40;99.90
42833;DHT22;28479;51.478;5.692;2022-08-21T06:00:58;14.40;99.90
42833;DHT22;28479;51.478;5.692;2022-08-21T06:03:27;14.50;99.90
42833;DHT22;28479;51.478;5.692;2022-08-21T06:05:53;14.50;99.90
42833;DHT22;28479;51.478;5.692;2022-08-21T06:08:20;14.60;99.90
42833;DHT22;28479;51.478;5.692;2022-08-21T06:10:47;14.70;99.90
42833;DHT22;28479;51.478;5.692;2022-08-21T06:13:14;14.70;99.90
42833;DHT22;28479;51.478;5.692;2022-08-21T06:15:40;14.80;99.90
42833;DHT22;28479;51.478;5.692;2022-08-21T06:18:06;14.80;99.90
42833;DHT22;28479;51.478;5.692;2022-08-21T06:20:32;14.90;99.90
42833;DHT22;28479;51.478;5.692;2022-08-21T06:22:58;15.00;99.90
42833;DHT22;28479;51.478;5.692;2022-08-21T06:25:24;15.00;99.90
42833;DHT22;28479;51.478;5.692;2022-08-21T06:27:50;15.00;99.90
42833;DHT22;28479;51.478;5.692;2022-08-21T06:30:16;15.10;99.90
42833;DHT22;28479;51.478;5.692;2022-08-21T06:32:42;15.10;99.90
42833;DHT22;28479;51.478;5.692;2022-08-21T06:35:08;15.20;99.90
42833;DHT22;28479;51.478;5.692;2022-08-21T06:37:34;15.30;99.90
42833;DHT22;28479;51.478;5.692;2022-08-21T06:40:04;15.40;99.90
42833;DHT22;28479;51.478;5.692;2022-08-21T06:42:30;15.40;99.90
42833;DHT22;28479;51.478;5.692;2022-08-21T06:44:57;15.50;99.90
42833;DHT22;28479;51.478;5.692;2022-08-21T06:47:23;15.60;99.90
42833;DHT22;28479;51.478;5.692;2022-08-21T06:49:48;15.60;99.90
42833;DHT22;28479;51.478;5.692;2022-08-21T06:52:14;15.70;99.90
42833;DHT22;28479;51.478;5.692;2022-08-21T06:54:40;15.70;99.90
42833;DHT22;28479;51.478;5.692;2022-08-21T06:57:05;15.80;99.90
42833;DHT22;28479;51.478;5.692;2022-08-21T06:59:32;15.90;99.90
42833;DHT22;28479;51.478;5.692;2022-08-21T07:01:59;16.00;99.90
42833;DHT22;28479;51.478;5.692;2022-08-21T07:04:25;16.10;99.90
42833;DHT22;28479;51.478;5.692;2022-08-21T07:06:51;16.20;99.90
42833;DHT22;28479;51.478;5.692;2022-08-21T07:09:17;16.30;99.90
42833;DHT22;28479;51.478;5.692;2022-08-21T07:11:52;16.40;99.90
42833;DHT22;28479;51.478;5.692;2022-08-21T07:14:18;16.50;99.90
42833;DHT22;28479;51.478;5.692;2022-08-21T07:16:44;16.50;99.90
42833;DHT22;28479;51.478;5.692;2022-08-21T07:19:10;16.70;99.90
42833;DHT22;28479;51.478;5.692;2022-08-21T07:21:36;16.80;99.90
42833;DHT22;28479;51.478;5.692;2022-08-21T07:24:02;16.90;99.90
42833;DHT22;28479;51.478;5.692;2022-08-21T07:26:28;17.00;99.90
42833;DHT22;28479;51.478;5.692;2022-08-21T07:28:53;17.00;99.90
42833;DHT22;28479;51.478;5.692;2022-08-21T07:31:21;17.20;99.90
42833;DHT22;28479;51.478;5.692;2022-08-21T07:33:47;17.40;99.90
42833;DHT22;28479;51.478;5.692;2022-08-21T07:36:13;17.60;99.90
42833;DHT22;28479;51.478;5.692;2022-08-21T07:38:39;17.80;99.90
42833;DHT22;28479;51.478;5.692;2022-08-21T07:41:14;17.80;99.90
42833;DHT22;28479;51.478;5.692;2022-08-21T07:43:40;17.80;99.90
42833;DHT22;28479;51.478;5.692;2022-08-21T07:46:06;17.70;99.90
42833;DHT22;28479;51.478;5.692;2022-08-21T07:48:31;17.60;99.90
42833;DHT22;28479;51.478;5.692;2022-08-21T07:50:58;17.70;99.90
42833;DHT22;28479;51.478;5.692;2022-08-21T07:53:24;17.70;99.90
42833;DHT22;28479;51.478;5.692;2022-08-21T07:55:49;17.80;99.90
42833;DHT22;28479;51.478;5.692;2022-08-21T07:58:15;17.80;99.90
42833;DHT22;28479;51.478;5.692;2022-08-21T08:00:41;17.80;99.90
42833;DHT22;28479;51.478;5.692;2022-08-21T08:03:06;17.90;99.90
42833;DHT22;28479;51.478;5.692;2022-08-21T08:05:32;18.00;99.90
42833;DHT22;28479;51.478;5.692;2022-08-21T08:07:58;18.10;99.90
42833;DHT22;28479;51.478;5.692;2022-08-21T08:10:24;18.20;99.90
42833;DHT22;28479;51.478;5.692;2022-08-21T08:12:51;18.30;99.90
42833;DHT22;28479;51.478;5.692;2022-08-21T08:15:22;18.30;99.90
42833;DHT22;28479;51.478;5.692;2022-08-21T08:17:48;18.30;99.90
42833;DHT22;28479;51.478;5.692;2022-08-21T08:20:15;18.40;99.90
42833;DHT22;28479;51.478;5.692;2022-08-21T08:22:42;18.40;99.90
42833;DHT22;28479;51.478;5.692;2022-08-21T08:25:09;18.60;99.90
42833;DHT22;28479;51.478;5.692;2022-08-21T08:27:35;18.60;99.90
42833;DHT22;28479;51.478;5.692;2022-08-21T08:30:02;18.70;99.90
42833;DHT22;28479;51.478;5.692;2022-08-21T08:32:28;18.80;99.90
42833;DHT22;28479;51.478;5.692;2022-08-21T08:34:53;18.80;99.90
42833;DHT22;28479;51.478;5.692;2022-08-21T08:37:20;18.80;99.90
42833;DHT22;28479;51.478;5.692;2022-08-21T08:39:45;18.90;99.90
42833;DHT22;28479;51.478;5.692;2022-08-21T08:44:43;19.00;99.90
42833;DHT22;28479;51.478;5.692;2022-08-21T08:47:13;19.10;99.90
42833;DHT22;28479;51.478;5.692;2022-08-21T08:50:06;19.20;99.90
42833;DHT22;28479;51.478;5.692;2022-08-21T08:52:37;19.30;99.90
42833;DHT22;28479;51.478;5.692;2022-08-21T08:55:21;19.40;99.90
42833;DHT22;28479;51.478;5.692;2022-08-21T08:57:48;19.30;99.90
42833;DHT22;28479;51.478;5.692;2022-08-21T09:00:17;19.40;99.90
42833;DHT22;28479;51.478;5.692;2022-08-21T09:02:44;19.70;99.90
42833;DHT22;28479;51.478;5.692;2022-08-21T09:05:22;19.80;99.90
42833;DHT22;28479;51.478;5.692;2022-08-21T09:10:53;19.90;99.90
42833;DHT22;28479;51.478;5.692;2022-08-21T09:29:20;21.00;99.90
42833;DHT22;28479;51.478;5.692;2022-08-21T09:31:48;21.00;99.90
42833;DHT22;28479;51.478;5.692;2022-08-21T09:34:25;20.90;99.90
42833;DHT22;28479;51.478;5.692;2022-08-21T09:36:51;20.60;99.90
42833;DHT22;28479;51.478;5.692;2022-08-21T09:39:26;20.40;99.90
42833;DHT22;28479;51.478;5.692;2022-08-21T09:41:57;20.50;99.90
42833;DHT22;28479;51.478;5.692;2022-08-21T09:44:30;20.60;99.90
42833;DHT22;28479;51.478;5.692;2022-08-21T09:46:57;20.70;99.90
42833;DHT22;28479;51.478;5.692;2022-08-21T09:49:31;20.80;99.90
42833;DHT22;28479;51.478;5.692;2022-08-21T09:51:59;21.10;99.90
42833;DHT22;28479;51.478;5.692;2022-08-21T09:54:34;21.10;99.90
42833;DHT22;28479;51.478;5.692;2022-08-21T09:59:53;21.00;99.90
42833;DHT22;28479;51.478;5.692;2022-08-21T10:02:27;21.20;99.90
42833;DHT22;28479;51.478;5.692;2022-08-21T10:04:56;21.80;99.90
42833;DHT22;28479;51.478;5.692;2022-08-21T10:07:25;21.90;99.90
42833;DHT22;28479;51.478;5.692;2022-08-21T10:13:04;22.20;99.90
42833;DHT22;28479;51.478;5.692;2022-08-21T10:15:53;22.20;99.90
42833;DHT22;28479;51.478;5.692;2022-08-21T10:18:41;22.00;99.90
42833;DHT22;28479;51.478;5.692;2022-08-21T10:21:26;21.70;99.90
42833;DHT22;28479;51.478;5.692;2022-08-21T10:24:11;21.60;99.90
42833;DHT22;28479;51.478;5.692;2022-08-21T10:26:55;21.60;99.90
42833;DHT22;28479;51.478;5.692;2022-08-21T10:29:42;21.40;99.90
42833;DHT22;28479;51.478;5.692;2022-08-21T10:40:52;22.00;99.90
42833;DHT22;28479;51.478;5.692;2022-08-21T10:55:08;23.30;99.90
42833;DHT22;28479;51.478;5.692;2022-08-21T10:57:57;23.10;99.90
42833;DHT22;28479;51.478;5.692;2022-08-21T11:00:29;23.00;99.90
42833;DHT22;28479;51.478;5.692;2022-08-21T11:03:13;23.00;99.90
42833;DHT22;28479;51.478;5.692;2022-08-21T11:06:04;23.20;99.90
42833;DHT22;28479;51.478;5.692;2022-08-21T11:08:40;23.50;99.90
42833;DHT22;28479;51.478;5.692;2022-08-21T11:11:18;23.70;99.90
42833;DHT22;28479;51.478;5.692;2022-08-21T11:13:57;23.80;99.90
42833;DHT22;28479;51.478;5.692;2022-08-21T11:16:45;23.70;99.90
42833;DHT22;28479;51.478;5.692;2022-08-21T11:19:20;23.70;99.90
42833;DHT22;28479;51.478;5.692;2022-08-21T11:22:11;23.80;99.90
42833;DHT22;28479;51.478;5.692;2022-08-21T11:27:28;23.70;99.90
42833;DHT22;28479;51.478;5.692;2022-08-21T11:29:57;23.40;99.90
42833;DHT22;28479;51.478;5.692;2022-08-21T11:36:06;23.30;99.90
42833;DHT22;28479;51.478;5.692;2022-08-21T11:38:26;23.30;99.90
42833;DHT22;28479;51.478;5.692;2022-08-21T11:41:05;23.70;99.90
42833;DHT22;28479;51.478;5.692;2022-08-21T11:43:49;23.80;99.90
42833;DHT22;28479;51.478;5.692;2022-08-21T11:54:40;24.30;99.90
42833;DHT22;28479;51.478;5.692;2022-08-21T11:57:23;24.30;99.90
42833;DHT22;28479;51.478;5.692;2022-08-21T11:59:54;24.10;99.90
42833;DHT22;28479;51.478;5.692;2022-08-21T12:02:29;23.70;99.90
42833;DHT22;28479;51.478;5.692;2022-08-21T12:05:03;23.40;99.90
42833;DHT22;28479;51.478;5.692;2022-08-21T12:07:41;23.60;99.90
42833;DHT22;28479;51.478;5.692;2022-08-21T12:10:12;24.00;99.90
42833;DHT22;28479;51.478;5.692;2022-08-21T12:12:40;24.40;99.90
42833;DHT22;28479;51.478;5.692;2022-08-21T12:18:07;25.30;99.90
42833;DHT22;28479;51.478;5.692;2022-08-21T12:26:53;25.80;98.90
42833;DHT22;28479;51.478;5.692;2022-08-21T12:29:36;26.20;98.30
42833;DHT22;28479;51.478;5.692;2022-08-21T12:34:50;26.20;97.50
42833;DHT22;28479;51.478;5.692;2022-08-21T12:37:39;25.50;97.50
42833;DHT22;28479;51.478;5.692;2022-08-21T12:40:39;25.00;98.30
42833;DHT22;28479;51.478;5.692;2022-08-21T12:43:11;24.50;98.50
42833;DHT22;28479;51.478;5.692;2022-08-21T12:45:47;24.20;98.40
42833;DHT22;28479;51.478;5.692;2022-08-21T12:48:54;23.90;97.50
42833;DHT22;28479;51.478;5.692;2022-08-21T12:51:38;24.10;98.20
42833;DHT22;28479;51.478;5.692;2022-08-21T12:54:09;24.30;98.00
42833;DHT22;28479;51.478;5.692;2022-08-21T12:56:34;24.60;97.60
42833;DHT22;28479;51.478;5.692;2022-08-21T12:59:11;24.70;98.10
42833;DHT22;28479;51.478;5.692;2022-08-21T13:01:49;24.90;97.90
42833;DHT22;28479;51.478;5.692;2022-08-21T13:04:47;24.90;97.00
42833;DHT22;28479;51.478;5.692;2022-08-21T13:07:25;25.20;97.10
42833;DHT22;28479;51.478;5.692;2022-08-21T13:09:56;25.60;97.10
42833;DHT22;28479;51.478;5.692;2022-08-21T13:12:23;25.80;97.40
42833;DHT22;28479;51.478;5.692;2022-08-21T13:14:51;26.00;97.00
42833;DHT22;28479;51.478;5.692;2022-08-21T13:17:20;25.80;96.60
42833;DHT22;28479;51.478;5.692;2022-08-21T13:19:59;26.00;96.20
42833;DHT22;28479;51.478;5.692;2022-08-21T13:22:26;26.10;95.50
42833;DHT22;28479;51.478;5.692;2022-08-21T13:24:52;26.40;96.10
42833;DHT22;28479;51.478;5.692;2022-08-21T13:27:27;26.80;95.70
42833;DHT22;28479;51.478;5.692;2022-08-21T13:30:13;27.30;96.60
42833;DHT22;28479;51.478;5.692;2022-08-21T13:32:45;27.80;94.90
42833;DHT22;28479;51.478;5.692;2022-08-21T13:35:20;27.60;94.80
42833;DHT22;28479;51.478;5.692;2022-08-21T13:37:47;27.10;94.10
42833;DHT22;28479;51.478;5.692;2022-08-21T13:40:16;26.50;95.00
42833;DHT22;28479;51.478;5.692;2022-08-21T13:42:45;26.30;95.10
42833;DHT22;28479;51.478;5.692;2022-08-21T13:45:32;26.40;94.90
42833;DHT22;28479;51.478;5.692;2022-08-21T13:48:00;27.00;95.00
42833;DHT22;28479;51.478;5.692;2022-08-21T13:50:26;27.40;94.50
42833;DHT22;28479;51.478;5.692;2022-08-21T13:53:02;26.90;93.50
42833;DHT22;28479;51.478;5.692;2022-08-21T13:55:54;26.60;94.20
42833;DHT22;28479;51.478;5.692;2022-08-21T13:58:30;26.40;94.30
42833;DHT22;28479;51.478;5.692;2022-08-21T14:00:56;26.20;94.10
42833;DHT22;28479;51.478;5.692;2022-08-21T14:03:38;26.00;94.70
42833;DHT22;28479;51.478;5.692;2022-08-21T14:06:16;26.20;94.70
42833;DHT22;28479;51.478;5.692;2022-08-21T14:08:49;26.20;94.80
42833;DHT22;28479;51.478;5.692;2022-08-21T14:11:16;26.40;94.90
42833;DHT22;28479;51.478;5.692;2022-08-21T14:13:46;26.10;94.70
42833;DHT22;28479;51.478;5.692;2022-08-21T14:16:59;26.20;95.80
42833;DHT22;28479;51.478;5.692;2022-08-21T14:21:39;26.80;94.60
42833;DHT22;28479;51.478;5.692;2022-08-21T14:24:06;27.00;94.90
42833;DHT22;28479;51.478;5.692;2022-08-21T14:26:35;27.20;93.80
42833;DHT22;28479;51.478;5.692;2022-08-21T14:29:02;27.20;93.90
42833;DHT22;28479;51.478;5.692;2022-08-21T14:31:33;27.10;93.30
42833;DHT22;28479;51.478;5.692;2022-08-21T14:34:03;26.90;93.80
42833;DHT22;28479;51.478;5.692;2022-08-21T14:36:29;26.70;94.20
42833;DHT22;28479;51.478;5.692;2022-08-21T14:38:54;26.40;94.00
42833;DHT22;28479;51.478;5.692;2022-08-21T14:41:23;26.40;94.30
42833;DHT22;28479;51.478;5.692;2022-08-21T14:43:52;26.50;94.00
42833;DHT22;28479;51.478;5.692;2022-08-21T14:46:24;26.50;94.30
42833;DHT22;28479;51.478;5.692;2022-08-21T14:48:50;26.60;93.60
42833;DHT22;28479;51.478;5.692;2022-08-21T14:51:16;26.40;93.60
42833;DHT22;28479;51.478;5.692;2022-08-21T14:53:42;26.70;94.00
42833;DHT22;28479;51.478;5.692;2022-08-21T14:56:08;26.90;93.50
42833;DHT22;28479;51.478;5.692;2022-08-21T14:58:38;26.80;93.30
42833;DHT22;28479;51.478;5.692;2022-08-21T15:01:09;26.70;93.40
42833;DHT22;28479;51.478;5.692;2022-08-21T15:03:35;26.80;93.60
42833;DHT22;28479;51.478;5.692;2022-08-21T15:06:02;27.10;93.30
42833;DHT22;28479;51.478;5.692;2022-08-21T15:08:28;26.70;93.70
42833;DHT22;28479;51.478;5.692;2022-08-21T15:10:54;26.40;93.50
42833;DHT22;28479;51.478;5.692;2022-08-21T15:13:20;26.10;93.50
42833;DHT22;28479;51.478;5.692;2022-08-21T15:15:49;26.30;93.70
42833;DHT22;28479;51.478;5.692;2022-08-21T15:18:21;26.30;93.70
42833;DHT22;28479;51.478;5.692;2022-08-21T15:20:46;26.50;93.80
42833;DHT22;28479;51.478;5.692;2022-08-21T15:23:12;26.60;93.30
42833;DHT22;28479;51.478;5.692;2022-08-21T15:25:41;26.50;93.50
42833;DHT22;28479;51.478;5.692;2022-08-21T15:28:07;26.30;93.60
42833;DHT22;28479;51.478;5.692;2022-08-21T15:30:34;26.20;93.20
42833;DHT22;28479;51.478;5.692;2022-08-21T15:32:59;26.00;93.80
42833;DHT22;28479;51.478;5.692;2022-08-21T15:35:25;25.80;94.30
42833;DHT22;28479;51.478;5.692;2022-08-21T15:37:51;25.90;94.40
42833;DHT22;28479;51.478;5.692;2022-08-21T15:40:16;25.70;94.40
42833;DHT22;28479;51.478;5.692;2022-08-21T15:42:42;25.60;94.10
42833;DHT22;28479;51.478;5.692;2022-08-21T15:45:09;25.40;94.30
42833;DHT22;28479;51.478;5.692;2022-08-21T15:47:37;25.40;94.70
42833;DHT22;28479;51.478;5.692;2022-08-21T15:50:06;25.30;94.80
42833;DHT22;28479;51.478;5.692;2022-08-21T15:52:33;25.30;95.00
42833;DHT22;28479;51.478;5.692;2022-08-21T15:55:02;25.30;95.10
42833;DHT22;28479;51.478;5.692;2022-08-21T15:57:28;25.30;95.10
42833;DHT22;28479;51.478;5.692;2022-08-21T15:59:56;25.40;95.20
42833;DHT22;28479;51.478;5.692;2022-08-21T16:02:28;25.40;95.40
42833;DHT22;28479;51.478;5.692;2022-08-21T16:04:54;25.20;95.20
42833;DHT22;28479;51.478;5.692;2022-08-21T16:07:22;25.00;95.30
42833;DHT22;28479;51.478;5.692;2022-08-21T16:09:48;24.90;95.30
42833;DHT22;28479;51.478;5.692;2022-08-21T16:12:30;24.80;95.50
42833;DHT22;28479;51.478;5.692;2022-08-21T16:14:58;24.80;95.80
42833;DHT22;28479;51.478;5.692;2022-08-21T16:17:28;24.60;95.70
42833;DHT22;28479;51.478;5.692;2022-08-21T16:19:55;24.50;95.80
42833;DHT22;28479;51.478;5.692;2022-08-21T16:22:21;24.40;95.80
42833;DHT22;28479;51.478;5.692;2022-08-21T16:24:46;24.40;96.10
42833;DHT22;28479;51.478;5.692;2022-08-21T16:27:12;24.30;96.10
42833;DHT22;28479;51.478;5.692;2022-08-21T16:29:39;24.20;96.00
42833;DHT22;28479;51.478;5.692;2022-08-21T16:32:05;24.20;96.10
42833;DHT22;28479;51.478;5.692;2022-08-21T16:34:31;24.10;96.00
42833;DHT22;28479;51.478;5.692;2022-08-21T16:36:58;24.20;96.10
42833;DHT22;28479;51.478;5.692;2022-08-21T16:39:23;24.30;96.20
42833;DHT22;28479;51.478;5.692;2022-08-21T16:41:49;24.50;96.40
42833;DHT22;28479;51.478;5.692;2022-08-21T16:44:16;24.60;96.10
42833;DHT22;28479;51.478;5.692;2022-08-21T16:46:42;24.80;96.30
42833;DHT22;28479;51.478;5.692;2022-08-21T16:49:08;25.00;96.30
42833;DHT22;28479;51.478;5.692;2022-08-21T16:51:35;24.90;96.00
42833;DHT22;28479;51.478;5.692;2022-08-21T16:54:02;24.80;96.10
42833;DHT22;28479;51.478;5.692;2022-08-21T16:56:28;24.90;96.10
42833;DHT22;28479;51.478;5.692;2022-08-21T16:58:55;24.80;96.40